Time;durP1;ratioP1;P1;durP2;ratioP2;P2;SDS_P1;SDS_P2;PMS_P1;PMS_P2;Temp;Humidity;BMP_temperature;BMP_pressure;BME280_temperature;BME280_humidity;BME280_pressure;Samples;Min_cycle;Max_cycle;Signal;HPM_P1;HPM_P2
2023/09/02 00:02:03;;;;;;;6.15;4.05;;;13.60;99.90;;;;;;5112575;28;20050;-66
2023/09/02 00:04:30;;;;;;;6.18;4.10;;;13.50;99.90;;;;;;5113197;28;20047;-66
2023/09/02 00:06:57;;;;;;;7.20;4.75;;;13.50;99.90;;;;;;5096690;28;20047;-66
2023/09/02 00:09:25;;;;;;;7.55;4.28;;;13.50;99.90;;;;;;5076595;28;20492;-66
2023/09/02 00:11:52;;;;;;;7.88;4.50;;;13.50;99.90;;;;;;5104905;28;20506;-66
2023/09/02 00:14:19;;;;;;;6.00;4.22;;;13.50;99.90;;;;;;5093827;27;20507;-66
2023/09/02 00:16:46;;;;;;;6.43;4.30;;;13.50;99.90;;;;;;5077135;28;20063;-66
2023/09/02 00:19:13;;;;;;;4.57;3.47;;;13.50;99.90;;;;;;5076104;28;20109;-66
2023/09/02 00:21:40;;;;;;;6.60;4.03;;;13.50;99.90;;;;;;5093761;27;20052;-66
2023/09/02 00:24:07;;;;;;;7.28;3.67;;;13.40;99.90;;;;;;5076869;28;20480;-66
2023/09/02 00:26:36;;;;;;;4.45;3.60;;;13.40;99.90;;;;;;5076366;28;20060;-66
2023/09/02 00:29:03;;;;;;;7.32;4.47;;;13.40;99.90;;;;;;5093204;28;20129;-67
2023/09/02 00:31:30;;;;;;;5.57;4.20;;;13.40;99.90;;;;;;5092465;28;20052;-66
2023/09/02 00:33:57;;;;;;;6.68;3.60;;;13.40;99.90;;;;;;5094399;28;20047;-66
2023/09/02 00:36:24;;;;;;;6.32;3.85;;;13.40;99.90;;;;;;5095069;27;20117;-67
2023/09/02 00:38:51;;;;;;;6.85;3.80;;;13.40;99.90;;;;;;5075863;27;20373;-67
2023/09/02 00:41:25;;;;;;;8.15;3.72;;;13.40;99.90;;;;;;5076211;28;20488;-66
2023/09/02 00:43:55;;;;;;;8.13;3.65;;;13.40;99.90;;;;;;5093942;28;20051;-67
2023/09/02 00:46:23;;;;;;;7.88;3.97;;;13.40;99.90;;;;;;5095347;28;20039;-67
2023/09/02 00:48:50;;;;;;;5.57;3.67;;;13.40;99.90;;;;;;5075589;28;20453;-67
2023/09/02 00:51:17;;;;;;;6.60;3.72;;;13.40;99.90;;;;;;5076106;28;20051;-67
2023/09/02 00:53:45;;;;;;;4.70;3.22;;;13.40;99.90;;;;;;5094236;28;20050;-66
2023/09/02 00:56:13;;;;;;;6.97;4.10;;;13.40;99.90;;;;;;5094389;28;20093;-67
2023/09/02 00:58:40;;;;;;;5.03;3.35;;;13.40;99.90;;;;;;5091578;28;20400;-66
2023/09/02 01:01:09;;;;;;;6.55;3.55;;;13.30;99.90;;;;;;5094392;28;20059;-66
2023/09/02 01:03:37;;;;;;;5.72;3.55;;;13.30;99.90;;;;;;5112323;28;20075;-66
2023/09/02 01:06:05;;;;;;;6.57;3.70;;;13.30;99.90;;;;;;5109998;28;20040;-67
2023/09/02 01:08:34;;;;;;;5.85;3.47;;;13.30;99.90;;;;;;5075666;28;20113;-67
2023/09/02 01:11:01;;;;;;;8.98;4.00;;;13.30;99.90;;;;;;5076243;28;20047;-66
2023/09/02 01:13:30;;;;;;;6.50;3.45;;;13.20;99.90;;;;;;5109798;28;20441;-66
2023/09/02 01:15:57;;;;;;;5.63;4.07;;;13.30;99.90;;;;;;5093536;28;20054;-66
2023/09/02 01:18:26;;;;;;;7.55;4.47;;;13.20;99.90;;;;;;5075806;28;20055;-66
2023/09/02 01:21:24;;;;;;;4.45;3.38;;;13.20;99.90;;;;;;5093244;28;20052;-67
2023/09/02 01:24:16;;;;;;;7.50;4.05;;;13.20;99.90;;;;;;5094756;28;20442;-66
2023/09/02 01:27:12;;;;;;;5.78;4.05;;;13.20;99.90;;;;;;5110957;28;20056;-67
2023/09/02 01:29:53;;;;;;;6.13;3.50;;;13.20;99.90;;;;;;5092834;28;20519;-67
2023/09/02 01:32:21;;;;;;;5.70;3.67;;;13.20;99.90;;;;;;5076409;28;20051;-66
2023/09/02 01:34:48;;;;;;;8.25;3.75;;;13.20;99.90;;;;;;5074768;28;20093;-65
2023/09/02 01:37:17;;;;;;;6.00;4.15;;;13.20;99.90;;;;;;5076029;28;20075;-66
2023/09/02 01:39:47;;;;;;;7.50;3.60;;;13.10;99.90;;;;;;5093543;28;20079;-66
2023/09/02 01:42:16;;;;;;;7.30;3.80;;;13.10;99.90;;;;;;5111947;28;20499;-66
2023/09/02 01:44:45;;;;;;;6.40;3.90;;;13.10;99.90;;;;;;5098309;28;20488;-66
2023/09/02 01:47:13;;;;;;;5.63;4.03;;;13.10;99.90;;;;;;5109512;28;20055;-66
2023/09/02 01:49:40;;;;;;;7.07;3.70;;;13.10;99.90;;;;;;5093272;28;20503;-65
2023/09/02 01:52:08;;;;;;;6.78;3.78;;;13.10;99.90;;;;;;5092804;28;20556;-66
2023/09/02 01:54:37;;;;;;;6.00;3.80;;;13.00;99.90;;;;;;5094115;28;20046;-66
2023/09/02 01:57:04;;;;;;;6.00;4.15;;;13.00;99.90;;;;;;5078317;28;20074;-66
2023/09/02 01:59:32;;;;;;;6.07;3.88;;;13.00;99.90;;;;;;5095650;28;20051;-67
2023/09/02 02:02:02;;;;;;;7.18;3.70;;;12.90;99.90;;;;;;5108401;28;20060;-67
2023/09/02 02:04:34;;;;;;;7.03;4.45;;;12.90;99.90;;;;;;5113243;28;20054;-68
2023/09/02 02:07:05;;;;;;;7.95;4.50;;;12.90;99.90;;;;;;5115021;28;20051;-67
2023/09/02 02:09:39;;;;;;;6.82;4.53;;;12.90;99.90;;;;;;5114202;28;20043;-67
2023/09/02 02:12:08;;;;;;;6.45;4.43;;;12.90;99.90;;;;;;5110945;28;20058;-67
2023/09/02 02:14:36;;;;;;;7.15;4.78;;;12.80;99.90;;;;;;5108322;28;20036;-66
2023/09/02 02:17:04;;;;;;;6.88;4.57;;;12.80;99.90;;;;;;5114412;28;20059;-67
2023/09/02 02:19:31;;;;;;;7.68;4.50;;;12.70;99.90;;;;;;5114764;28;20105;-68
2023/09/02 02:21:58;;;;;;;6.43;5.28;;;12.70;99.90;;;;;;5112388;28;20047;-68
2023/09/02 02:24:26;;;;;;;9.15;6.00;;;12.70;99.90;;;;;;5114331;28;20487;-67
2023/09/02 02:26:53;;;;;;;8.77;4.75;;;12.60;99.90;;;;;;5093185;28;20048;-67
2023/09/02 02:29:20;;;;;;;7.35;4.70;;;12.60;99.90;;;;;;5077292;28;20063;-67
2023/09/02 02:31:48;;;;;;;8.75;5.65;;;12.60;99.90;;;;;;5077529;28;20045;-69
2023/09/02 02:34:16;;;;;;;10.65;5.35;;;12.60;99.90;;;;;;5077316;28;20149;-66
2023/09/02 02:36:42;;;;;;;7.70;5.10;;;12.60;99.90;;;;;;5094633;28;20044;-66
2023/09/02 02:39:09;;;;;;;7.20;4.70;;;12.50;99.90;;;;;;5108591;28;20445;-66
2023/09/02 02:41:36;;;;;;;9.70;5.78;;;12.50;99.90;;;;;;5114002;28;20088;-67
2023/09/02 02:44:04;;;;;;;8.65;5.70;;;12.50;99.90;;;;;;5112367;28;20116;-67
2023/09/02 02:46:31;;;;;;;9.10;5.78;;;12.40;99.90;;;;;;5114005;28;20054;-67
2023/09/02 02:49:00;;;;;;;10.13;6.50;;;12.40;99.90;;;;;;5114080;28;20507;-67
2023/09/02 02:51:27;;;;;;;8.25;5.70;;;12.40;99.90;;;;;;5113768;28;20043;-67
2023/09/02 02:53:54;;;;;;;7.55;5.63;;;12.40;99.90;;;;;;5113616;28;20394;-65
2023/09/02 02:56:21;;;;;;;8.50;5.88;;;12.40;99.90;;;;;;5114239;27;20048;-65
2023/09/02 02:58:48;;;;;;;7.30;5.55;;;12.40;99.90;;;;;;5130790;27;20051;-65
2023/09/02 03:01:15;;;;;;;8.70;6.20;;;12.30;99.90;;;;;;5133847;27;20043;-66
2023/09/02 03:03:42;;;;;;;8.77;5.72;;;12.30;99.90;;;;;;5094844;28;20036;-66
2023/09/02 03:06:16;;;;;;;11.05;6.70;;;12.30;99.90;;;;;;5093930;28;20048;-67
2023/09/02 03:08:43;;;;;;;7.43;5.60;;;12.20;99.90;;;;;;5077478;27;20503;-66
2023/09/02 03:11:10;;;;;;;8.35;5.85;;;12.20;99.90;;;;;;5094557;27;20055;-67
2023/09/02 03:13:37;;;;;;;10.63;6.22;;;12.20;99.90;;;;;;5093772;28;20047;-67
2023/09/02 03:16:06;;;;;;;8.98;6.43;;;12.20;99.90;;;;;;5096020;27;20051;-67
2023/09/02 03:18:33;;;;;;;9.52;6.97;;;12.20;99.90;;;;;;5078173;28;20052;-66
2023/09/02 03:21:03;;;;;;;8.95;5.90;;;12.20;99.90;;;;;;5076934;27;20089;-66
2023/09/02 03:23:32;;;;;;;11.40;5.82;;;12.20;99.90;;;;;;5094967;27;20488;-67
2023/09/02 03:26:07;;;;;;;8.70;6.10;;;12.20;99.90;;;;;;5095322;28;20047;-67
2023/09/02 03:28:34;;;;;;;8.27;6.60;;;12.30;99.90;;;;;;5095578;28;20057;-67
2023/09/02 03:31:06;;;;;;;9.23;6.05;;;12.30;99.90;;;;;;5095293;28;20557;-69
2023/09/02 03:33:32;;;;;;;10.10;5.32;;;12.40;99.90;;;;;;5113220;28;20376;-66
2023/09/02 03:36:00;;;;;;;9.10;6.20;;;12.40;99.90;;;;;;5095685;28;20055;-67
2023/09/02 03:38:28;;;;;;;8.93;6.57;;;12.50;99.90;;;;;;5076741;28;20059;-68
2023/09/02 03:40:56;;;;;;;8.75;6.38;;;12.50;99.90;;;;;;5093871;28;20052;-68
2023/09/02 03:43:23;;;;;;;8.15;6.20;;;12.50;99.90;;;;;;5110994;28;20044;-68
2023/09/02 03:45:50;;;;;;;8.57;6.20;;;12.60;99.90;;;;;;5101370;27;20059;-68
2023/09/02 03:48:19;;;;;;;10.18;6.45;;;12.60;99.90;;;;;;5077200;28;20498;-69
2023/09/02 03:51:03;;;;;;;8.77;6.60;;;12.70;99.90;;;;;;5094151;28;20051;-68
2023/09/02 03:53:31;;;;;;;9.55;6.55;;;12.80;99.90;;;;;;5093975;28;20044;-69
2023/09/02 03:56:00;;;;;;;11.38;6.75;;;12.80;99.90;;;;;;5094089;27;20039;-70
2023/09/02 03:58:29;;;;;;;10.10;6.38;;;12.80;99.90;;;;;;5094108;28;20380;-71
2023/09/02 04:00:56;;;;;;;8.43;6.07;;;12.80;99.90;;;;;;5094354;28;20051;-71
2023/09/02 04:03:23;;;;;;;9.75;6.70;;;12.80;99.90;;;;;;5095290;28;20483;-68
2023/09/02 04:05:50;;;;;;;12.18;7.10;;;12.90;99.90;;;;;;5094354;27;20048;-67
2023/09/02 04:08:19;;;;;;;11.98;7.57;;;12.90;99.90;;;;;;5076429;28;20098;-68
2023/09/02 04:10:51;;;;;;;12.45;7.05;;;12.90;99.90;;;;;;5077483;28;20048;-70
2023/09/02 04:13:21;;;;;;;9.77;6.13;;;12.90;99.90;;;;;;5095985;28;20101;-68
2023/09/02 04:15:48;;;;;;;10.27;6.32;;;13.00;99.90;;;;;;5093113;27;20055;-68
2023/09/02 04:18:15;;;;;;;8.38;6.50;;;12.90;99.90;;;;;;5076679;28;20055;-67
2023/09/02 04:20:43;;;;;;;9.88;6.93;;;13.00;99.90;;;;;;5093910;28;20059;-67
2023/09/02 04:23:10;;;;;;;9.13;6.60;;;13.00;99.90;;;;;;5093270;27;20048;-66
2023/09/02 04:25:45;;;;;;;9.57;7.13;;;13.00;99.90;;;;;;5093854;27;20036;-68
2023/09/02 04:28:12;;;;;;;11.98;7.10;;;13.00;99.90;;;;;;5076543;28;20105;-67
2023/09/02 04:30:40;;;;;;;9.18;6.97;;;13.10;99.90;;;;;;5093793;28;20395;-67
2023/09/02 04:33:07;;;;;;;10.07;6.65;;;13.10;99.90;;;;;;5076530;28;20055;-69
2023/09/02 04:35:38;;;;;;;9.75;6.95;;;13.00;99.90;;;;;;5076433;28;20046;-69
2023/09/02 04:38:05;;;;;;;9.30;6.78;;;13.10;99.90;;;;;;5110325;28;20047;-68
2023/09/02 04:40:32;;;;;;;11.70;8.02;;;13.10;99.90;;;;;;5107853;28;20139;-68
2023/09/02 04:42:59;;;;;;;12.40;8.15;;;13.10;99.90;;;;;;5092987;28;20048;-69
2023/09/02 04:45:26;;;;;;;12.40;7.43;;;13.10;99.90;;;;;;5093437;28;20052;-69
2023/09/02 04:47:55;;;;;;;9.77;7.80;;;13.10;99.90;;;;;;5076970;28;20051;-68
2023/09/02 04:50:22;;;;;;;10.65;7.57;;;13.10;99.90;;;;;;5091766;28;20055;-68
2023/09/02 04:52:49;;;;;;;12.00;7.30;;;13.10;99.90;;;;;;5112351;28;20420;-69
2023/09/02 04:55:19;;;;;;;14.65;7.80;;;13.10;99.90;;;;;;5112681;28;20065;-68
2023/09/02 04:57:46;;;;;;;14.95;7.78;;;13.10;99.90;;;;;;5092716;28;20087;-68
2023/09/02 05:00:14;;;;;;;16.35;8.77;;;13.10;99.90;;;;;;5075911;28;20139;-67
2023/09/02 05:02:44;;;;;;;10.48;7.53;;;13.10;99.90;;;;;;5077271;28;20134;-67
2023/09/02 05:05:13;;;;;;;9.85;7.65;;;13.10;99.90;;;;;;5074997;28;20396;-66
2023/09/02 05:07:40;;;;;;;12.73;7.68;;;13.20;99.90;;;;;;5075924;28;20044;-69
2023/09/02 05:10:08;;;;;;;11.68;7.68;;;13.10;99.90;;;;;;5093427;28;20055;-67
2023/09/02 05:12:35;;;;;;;10.77;7.40;;;13.10;99.90;;;;;;5092544;28;20089;-67
2023/09/02 05:15:04;;;;;;;10.18;7.15;;;13.10;99.90;;;;;;5076312;28;20094;-68
2023/09/02 05:17:31;;;;;;;12.55;8.25;;;13.10;99.90;;;;;;5091317;28;20043;-69
2023/09/02 05:19:58;;;;;;;11.30;7.55;;;13.10;99.90;;;;;;5075994;28;20055;-68
2023/09/02 05:22:27;;;;;;;11.13;7.80;;;13.00;99.90;;;;;;5076492;28;20050;-68
2023/09/02 05:24:54;;;;;;;10.15;7.78;;;13.00;99.90;;;;;;5092755;28;20047;-68
2023/09/02 05:27:21;;;;;;;11.32;8.23;;;13.00;99.90;;;;;;5076369;28;20055;-67
2023/09/02 05:29:49;;;;;;;16.38;7.82;;;13.00;99.90;;;;;;5114082;28;20047;-67
2023/09/02 05:32:17;;;;;;;11.82;7.82;;;13.10;99.90;;;;;;5078832;27;20052;-68
2023/09/02 05:34:44;;;;;;;11.80;7.95;;;13.10;99.90;;;;;;5080352;28;20505;-68
2023/09/02 05:37:11;;;;;;;11.32;7.82;;;13.20;99.90;;;;;;5078773;28;20499;-68
2023/09/02 05:39:39;;;;;;;12.18;8.30;;;13.20;99.90;;;;;;5079355;28;20047;-67
2023/09/02 05:42:07;;;;;;;11.05;8.13;;;13.30;99.90;;;;;;5080418;28;20052;-67
2023/09/02 05:44:35;;;;;;;12.20;7.95;;;13.40;99.90;;;;;;5078980;28;20055;-69
2023/09/02 05:47:02;;;;;;;10.02;7.55;;;13.50;99.90;;;;;;5096147;27;20109;-68
2023/09/02 05:49:29;;;;;;;10.77;8.30;;;13.60;99.90;;;;;;5080669;28;20052;-67
2023/09/02 05:51:56;;;;;;;10.93;7.85;;;13.60;99.90;;;;;;5096546;27;20071;-67
2023/09/02 05:54:23;;;;;;;11.55;7.85;;;13.70;99.90;;;;;;5079613;28;20063;-69
2023/09/02 05:56:51;;;;;;;11.52;8.10;;;13.80;99.90;;;;;;5078746;28;20048;-69
2023/09/02 05:59:18;;;;;;;11.35;7.95;;;13.90;99.90;;;;;;5079339;28;20080;-68
2023/09/02 06:01:46;;;;;;;12.50;8.23;;;14.00;99.90;;;;;;5096627;28;20040;-67
2023/09/02 06:04:13;;;;;;;11.52;8.02;;;14.10;99.90;;;;;;5115595;28;20117;-67
2023/09/02 06:06:40;;;;;;;14.35;8.68;;;14.20;99.90;;;;;;5115162;28;20070;-66
2023/09/02 06:09:09;;;;;;;11.07;7.88;;;14.40;99.90;;;;;;5099029;27;20456;-67
2023/09/02 06:11:36;;;;;;;11.82;8.55;;;14.50;99.90;;;;;;5095286;27;20083;-67
2023/09/02 06:14:04;;;;;;;13.13;7.72;;;14.60;99.90;;;;;;5110549;28;20059;-67
2023/09/02 06:16:31;;;;;;;12.18;8.98;;;14.80;99.90;;;;;;5091608;28;20156;-66
2023/09/02 06:18:58;;;;;;;14.30;9.20;;;14.90;99.90;;;;;;5107078;27;20047;-68
2023/09/02 06:21:25;;;;;;;12.80;9.02;;;15.00;99.90;;;;;;5093629;28;20483;-67
2023/09/02 06:23:52;;;;;;;12.73;8.75;;;15.20;99.90;;;;;;5114116;28;20047;-65
2023/09/02 06:26:19;;;;;;;14.77;8.93;;;15.30;99.90;;;;;;5089645;28;20155;-68
2023/09/02 06:28:46;;;;;;;13.23;8.48;;;15.60;99.90;;;;;;5108798;28;20047;-68
2023/09/02 06:31:15;;;;;;;12.15;8.32;;;15.80;99.90;;;;;;5106948;28;20043;-67
2023/09/02 06:33:42;;;;;;;11.73;7.47;;;16.20;99.90;;;;;;5093248;28;20241;-69
2023/09/02 06:36:12;;;;;;;11.65;8.25;;;16.80;99.90;;;;;;5091208;28;20502;-67
2023/09/02 06:38:39;;;;;;;13.93;8.57;;;17.50;99.90;;;;;;5091260;28;20108;-67
2023/09/02 06:41:11;;;;;;;12.70;8.25;;;18.20;99.90;;;;;;5104725;28;20381;-68
2023/09/02 06:43:38;;;;;;;13.68;8.52;;;18.90;99.90;;;;;;5103826;28;20067;-67
2023/09/02 06:46:18;;;;;;;11.95;7.97;;;19.40;99.90;;;;;;5093556;28;20040;-66
2023/09/02 06:48:45;;;;;;;12.70;7.35;;;19.90;99.90;;;;;;5110790;28;20047;-66
2023/09/02 06:51:12;;;;;;;12.18;6.93;;;20.50;99.90;;;;;;5106292;28;20043;-66
2023/09/02 06:53:39;;;;;;;12.23;7.07;;;20.90;99.90;;;;;;5103250;27;20046;-65
2023/09/02 06:56:08;;;;;;;10.75;7.68;;;21.30;99.90;;;;;;5104019;27;20112;-66
2023/09/02 06:58:35;;;;;;;12.20;7.53;;;21.60;99.90;;;;;;5086350;28;20100;-66
2023/09/02 07:01:02;;;;;;;9.55;7.00;;;22.10;99.90;;;;;;5106376;27;20074;-65
2023/09/02 07:03:30;;;;;;;10.27;6.95;;;22.30;99.90;;;;;;5090243;28;20508;-66
2023/09/02 07:06:05;;;;;;;10.82;7.60;;;22.70;99.90;;;;;;5094077;28;20051;-66
2023/09/02 07:08:32;;;;;;;12.50;7.40;;;23.10;99.90;;;;;;5088649;28;20044;-65
2023/09/02 07:10:59;;;;;;;10.35;7.55;;;23.20;99.90;;;;;;5101484;27;20051;-67
2023/09/02 07:13:26;;;;;;;9.68;7.55;;;23.60;99.90;;;;;;5089628;28;20056;-66
2023/09/02 07:15:59;;;;;;;9.80;6.95;;;23.80;99.90;;;;;;5091970;28;20071;-67
2023/09/02 07:18:26;;;;;;;13.23;7.70;;;24.20;99.90;;;;;;5104908;27;20440;-67
2023/09/02 07:20:58;;;;;;;11.07;6.82;;;24.40;99.90;;;;;;5109211;28;20105;-67
2023/09/02 07:23:25;;;;;;;10.45;6.43;;;24.70;99.90;;;;;;5091943;28;20074;-67
2023/09/02 07:25:52;;;;;;;11.55;6.85;;;25.00;99.90;;;;;;5088144;28;20047;-66
2023/09/02 07:28:19;;;;;;;11.13;8.00;;;25.00;99.90;;;;;;5092054;28;20043;-66
2023/09/02 07:30:46;;;;;;;11.68;7.20;;;25.20;99.90;;;;;;5109419;27;20047;-67
2023/09/02 07:33:13;;;;;;;10.18;6.88;;;25.40;99.90;;;;;;5092638;28;20047;-65
2023/09/02 07:35:40;;;;;;;9.77;6.50;;;25.50;99.90;;;;;;5117746;27;20088;-66
2023/09/02 07:38:09;;;;;;;7.90;6.50;;;26.00;99.90;;;;;;5087194;28;20056;-66
2023/09/02 07:40:35;;;;;;;9.75;7.05;;;26.20;99.80;;;;;;5092016;28;20067;-67
2023/09/02 07:43:03;;;;;;;9.13;6.93;;;26.40;99.10;;;;;;5092869;28;20058;-67
2023/09/02 07:45:30;;;;;;;9.90;6.72;;;26.50;98.20;;;;;;5092645;28;20491;-66
2023/09/02 07:47:57;;;;;;;8.63;6.00;;;26.60;98.10;;;;;;5104780;27;20083;-66
2023/09/02 07:50:24;;;;;;;9.85;6.10;;;26.90;97.70;;;;;;5107120;28;20092;-67
2023/09/02 07:52:51;;;;;;;10.38;6.43;;;27.10;97.20;;;;;;5091654;28;20051;-68
2023/09/02 07:55:20;;;;;;;21.98;7.03;;;27.30;97.00;;;;;;5102665;27;20118;-67
2023/09/02 07:57:46;;;;;;;7.38;5.47;;;27.40;96.90;;;;;;5086261;28;20056;-66
2023/09/02 08:00:13;;;;;;;7.05;5.60;;;27.50;96.20;;;;;;5110689;28;20054;-67
2023/09/02 08:02:40;;;;;;;9.18;5.15;;;27.80;96.10;;;;;;5078230;28;20101;-67
2023/09/02 08:05:08;;;;;;;9.73;5.90;;;27.90;95.60;;;;;;5093856;28;20058;-66
2023/09/02 08:07:35;;;;;;;7.43;4.55;;;27.90;95.00;;;;;;5082116;28;20055;-67
2023/09/02 08:10:03;;;;;;;8.68;4.93;;;28.10;94.80;;;;;;5086744;28;20456;-68
2023/09/02 08:12:31;;;;;;;8.77;4.60;;;28.20;94.20;;;;;;5087092;28;20055;-67
2023/09/02 08:14:58;;;;;;;6.97;4.18;;;28.50;93.60;;;;;;5089095;28;20128;-67
2023/09/02 08:17:26;;;;;;;9.52;4.50;;;28.80;93.80;;;;;;5089487;28;20437;-66
2023/09/02 08:19:53;;;;;;;6.72;4.18;;;28.70;92.90;;;;;;5092770;28;20109;-67
2023/09/02 08:22:20;;;;;;;9.75;4.05;;;28.80;93.20;;;;;;5101025;28;20043;-66
2023/09/02 08:24:47;;;;;;;6.15;4.05;;;28.60;92.80;;;;;;5093582;28;20047;-66
2023/09/02 08:27:14;;;;;;;6.60;4.60;;;29.30;92.10;;;;;;5085660;28;20040;-66
2023/09/02 08:29:42;;;;;;;7.47;5.07;;;29.70;91.50;;;;;;5108553;28;20059;-66
2023/09/02 08:32:09;;;;;;;9.30;4.68;;;30.30;90.70;;;;;;5107550;28;20044;-66
2023/09/02 08:34:36;;;;;;;7.72;4.38;;;29.80;91.00;;;;;;5101629;28;20396;-66
2023/09/02 08:37:03;;;;;;;7.82;4.88;;;29.90;91.00;;;;;;5089362;28;20047;-66
2023/09/02 08:39:30;;;;;;;6.57;4.00;;;29.90;90.80;;;;;;5104659;27;20039;-66
2023/09/02 08:41:57;;;;;;;6.47;4.55;;;29.90;90.50;;;;;;5101527;28;20056;-67
2023/09/02 08:44:27;;;;;;;6.53;4.80;;;29.90;90.00;;;;;;5092848;28;20537;-67
2023/09/02 08:47:00;;;;;;;8.82;4.97;;;30.20;90.00;;;;;;5091973;28;20047;-67
2023/09/02 08:49:27;;;;;;;7.45;4.72;;;30.50;88.10;;;;;;5090274;28;20077;-66
2023/09/02 08:51:54;;;;;;;6.70;4.82;;;30.60;88.90;;;;;;5109378;28;20487;-67
2023/09/02 08:54:22;;;;;;;7.15;4.68;;;30.50;88.70;;;;;;5092222;28;20466;-67
2023/09/02 08:56:50;;;;;;;6.53;4.68;;;30.60;88.10;;;;;;5106358;28;20044;-69
2023/09/02 08:59:17;;;;;;;7.78;4.97;;;31.10;87.20;;;;;;5091031;28;20134;-68
2023/09/02 09:01:46;;;;;;;9.60;4.65;;;31.00;87.30;;;;;;5109581;28;20047;-67
2023/09/02 09:04:16;;;;;;;10.02;5.45;;;30.90;87.00;;;;;;5114248;27;20052;-67
2023/09/02 09:06:43;;;;;;;7.85;4.75;;;30.80;86.50;;;;;;5095312;27;20052;-68
2023/09/02 09:09:11;;;;;;;6.43;4.93;;;30.90;86.20;;;;;;5094851;28;20580;-68
2023/09/02 09:11:41;;;;;;;8.35;4.68;;;30.80;86.60;;;;;;5110463;27;20052;-67
2023/09/02 09:14:12;;;;;;;12.93;5.03;;;30.90;87.40;;;;;;5109499;28;20047;-67
2023/09/02 09:16:43;;;;;;;7.88;5.15;;;31.00;87.40;;;;;;5112891;28;20044;-68
2023/09/02 09:19:10;;;;;;;7.45;4.88;;;31.00;86.90;;;;;;5109835;28;20052;-67
2023/09/02 09:21:38;;;;;;;7.05;5.00;;;31.20;86.20;;;;;;5096986;28;20089;-67
2023/09/02 09:24:05;;;;;;;7.32;5.30;;;31.70;85.30;;;;;;5092291;28;20058;-69
2023/09/02 09:26:33;;;;;;;7.70;5.28;;;31.80;85.30;;;;;;5109987;28;20044;-69
2023/09/02 09:29:00;;;;;;;7.65;4.90;;;31.50;85.90;;;;;;5095410;28;20058;-69
2023/09/02 09:31:28;;;;;;;7.63;5.30;;;31.50;85.40;;;;;;5079102;28;20461;-70
2023/09/02 09:33:58;;;;;;;7.75;5.13;;;31.40;85.30;;;;;;5113676;28;20047;-69
2023/09/02 09:36:26;;;;;;;9.98;5.40;;;31.40;85.00;;;;;;5095442;28;20093;-68
2023/09/02 09:38:56;;;;;;;7.97;5.05;;;30.80;85.40;;;;;;5091843;27;20402;-68
2023/09/02 09:41:25;;;;;;;7.85;5.70;;;30.70;85.20;;;;;;5100315;28;20551;-67
2023/09/02 09:44:17;;;;;;;7.63;4.80;;;30.50;85.60;;;;;;5087709;28;20054;-67
2023/09/02 09:46:50;;;;;;;8.23;5.25;;;29.40;86.10;;;;;;5078950;28;20036;-67
2023/09/02 09:49:29;;;;;;;9.07;5.20;;;29.00;87.80;;;;;;5094179;28;20131;-67
2023/09/02 09:52:09;;;;;;;7.70;4.95;;;30.00;86.40;;;;;;5095202;28;20052;-68
2023/09/02 09:54:39;;;;;;;8.82;6.03;;;30.60;86.20;;;;;;5093335;28;20443;-67
2023/09/02 09:57:11;;;;;;;9.27;5.88;;;30.00;86.00;;;;;;5092216;28;20104;-66
2023/09/02 09:59:38;;;;;;;9.27;4.72;;;29.60;87.10;;;;;;5093250;28;20047;-68
2023/09/02 10:02:06;;;;;;;8.02;5.57;;;29.70;88.00;;;;;;5090774;28;20051;-67
2023/09/02 10:04:33;;;;;;;8.85;5.90;;;29.30;88.10;;;;;;5101915;28;20062;-67
2023/09/02 10:07:01;;;;;;;9.02;5.07;;;28.70;89.00;;;;;;5109479;28;20048;-66
2023/09/02 10:09:42;;;;;;;8.68;5.35;;;27.90;90.10;;;;;;5103722;28;20109;-67
2023/09/02 10:12:13;;;;;;;10.77;5.63;;;27.50;90.40;;;;;;5090651;28;20052;-67
2023/09/02 10:14:41;;;;;;;8.98;5.05;;;26.80;90.90;;;;;;5092211;28;20454;-67
2023/09/02 10:17:09;;;;;;;8.95;5.15;;;26.70;91.50;;;;;;5093127;28;20040;-67
2023/09/02 10:19:36;;;;;;;9.63;5.68;;;26.40;91.80;;;;;;5094037;28;20048;-68
2023/09/02 10:22:04;;;;;;;8.15;4.90;;;26.00;92.20;;;;;;5104666;28;20101;-67
2023/09/02 10:24:33;;;;;;;10.93;5.53;;;26.00;92.40;;;;;;5107964;28;20484;-67
2023/09/02 10:27:07;;;;;;;8.43;5.30;;;25.90;92.50;;;;;;5094840;28;20058;-68
2023/09/02 10:29:38;;;;;;;10.95;5.28;;;26.10;92.40;;;;;;5109086;28;20044;-67
2023/09/02 10:32:12;;;;;;;9.82;5.75;;;26.80;92.30;;;;;;5103109;28;20125;-68
2023/09/02 10:34:46;;;;;;;10.73;5.35;;;27.80;91.00;;;;;;5104914;28;20048;-68
2023/09/02 10:37:19;;;;;;;8.30;5.68;;;28.50;90.80;;;;;;5104743;28;20039;-68
2023/09/02 10:39:51;;;;;;;7.13;4.00;;;29.30;89.90;;;;;;5102873;28;20075;-68
2023/09/02 10:42:20;;;;;;;7.35;4.13;;;30.00;90.00;;;;;;5086606;28;20052;-68
2023/09/02 10:44:47;;;;;;;6.30;3.90;;;30.80;89.40;;;;;;5092780;28;20051;-68
2023/09/02 10:47:14;;;;;;;6.05;3.80;;;31.30;88.00;;;;;;5106773;28;20044;-69
2023/09/02 10:49:42;;;;;;;7.57;3.80;;;31.50;86.30;;;;;;5108760;28;20044;-68
2023/09/02 10:52:10;;;;;;;4.80;3.33;;;32.00;85.80;;;;;;5087251;28;20067;-68
2023/09/02 10:55:03;;;;;;;7.13;3.97;;;32.50;84.50;;;;;;5094344;28;20437;-68
2023/09/02 10:57:31;;;;;;;7.90;3.42;;;31.80;81.70;;;;;;5053044;28;1084825;-69
2023/09/02 11:00:16;;;;;;;8.00;3.28;;;31.30;83.70;;;;;;5095454;28;20055;-68
2023/09/02 11:02:44;;;;;;;6.25;3.65;;;31.00;83.00;;;;;;5092857;28;20109;-68
2023/09/02 11:05:11;;;;;;;9.75;4.00;;;30.20;85.10;;;;;;5090048;28;20055;-68
2023/09/02 11:07:39;;;;;;;6.10;4.07;;;30.00;86.50;;;;;;5093352;28;20101;-68
2023/09/02 11:10:08;;;;;;;5.68;4.30;;;30.00;86.60;;;;;;5092113;28;20078;-67
2023/09/02 11:13:05;;;;;;;7.03;3.87;;;29.50;86.70;;;;;;5109759;27;20047;-68
2023/09/02 11:15:33;;;;;;;7.50;3.40;;;29.60;87.50;;;;;;5109437;28;20508;-71
2023/09/02 11:18:29;;;;;;;5.72;3.60;;;30.70;86.70;;;;;;5091607;28;20043;-72
2023/09/02 11:20:58;;;;;;;7.72;3.75;;;31.50;84.20;;;;;;5092292;28;20056;-71
2023/09/02 11:23:25;;;;;;;4.63;3.22;;;32.20;83.60;;;;;;5102169;28;20048;-70
2023/09/02 11:26:13;;;;;;;5.45;2.97;;;32.50;81.80;;;;;;5114737;27;20047;-71
2023/09/02 11:28:41;;;;;;;6.55;3.40;;;32.70;80.40;;;;;;5091614;28;20052;-70
2023/09/02 11:31:12;;;;;;;4.22;3.33;;;32.70;81.00;;;;;;5093648;28;20491;-70
2023/09/02 11:33:40;;;;;;;7.25;3.13;;;32.80;80.10;;;;;;5100752;28;20075;-70
2023/09/02 11:36:10;;;;;;;4.00;2.80;;;32.90;80.30;;;;;;5093931;28;20502;-69
2023/09/02 11:38:37;;;;;;;7.45;3.03;;;32.80;80.20;;;;;;5108520;28;20043;-69
2023/09/02 11:41:04;;;;;;;4.78;2.65;;;32.50;79.50;;;;;;5088417;28;20051;-70
2023/09/02 11:43:32;;;;;;;4.57;2.20;;;32.60;79.70;;;;;;5090245;28;20066;-69
2023/09/02 11:46:01;;;;;;;4.50;2.37;;;32.40;81.80;;;;;;5093320;28;20051;-70
2023/09/02 11:48:29;;;;;;;4.07;2.22;;;31.20;82.70;;;;;;5110066;27;20293;-70
2023/09/02 11:50:58;;;;;;;5.72;2.40;;;30.40;84.50;;;;;;5102923;28;20046;-70
2023/09/02 11:53:26;;;;;;;3.72;1.80;;;29.70;85.60;;;;;;5091202;28;20047;-70
2023/09/02 11:55:53;;;;;;;6.43;2.10;;;29.60;86.50;;;;;;5103990;28;20074;-71
2023/09/02 11:58:20;;;;;;;4.03;1.90;;;30.10;86.60;;;;;;5088232;28;20105;-70
2023/09/02 12:00:47;;;;;;;4.10;1.90;;;30.30;86.00;;;;;;5079322;28;20048;-69
2023/09/02 12:03:24;;;;;;;5.90;2.05;;;30.70;85.50;;;;;;5107701;27;20043;-70
2023/09/02 12:05:52;;;;;;;5.30;1.83;;;31.00;84.70;;;;;;5088239;28;20453;-70
2023/09/02 12:08:20;;;;;;;4.37;2.00;;;31.30;84.40;;;;;;5089178;28;20484;-70
2023/09/02 12:10:47;;;;;;;3.80;1.88;;;32.00;83.90;;;;;;5112962;27;20051;-72
2023/09/02 12:13:15;;;;;;;4.10;2.03;;;32.70;82.80;;;;;;5086714;28;20052;-70
2023/09/02 12:15:42;;;;;;;4.43;2.05;;;32.90;82.00;;;;;;5102344;28;20047;-70
2023/09/02 12:18:09;;;;;;;7.45;1.77;;;32.70;81.60;;;;;;5087740;28;20036;-71
2023/09/02 12:20:38;;;;;;;3.90;1.70;;;32.70;81.40;;;;;;5084820;28;20163;-71
2023/09/02 12:23:06;;;;;;;4.97;2.00;;;32.80;81.40;;;;;;5093660;28;20067;-71
2023/09/02 12:25:35;;;;;;;2.73;1.70;;;33.20;81.00;;;;;;5094369;28;20433;-70
2023/09/02 12:28:12;;;;;;;4.80;1.60;;;32.90;80.90;;;;;;5102561;28;20465;-69
2023/09/02 12:30:40;;;;;;;4.50;1.80;;;33.00;80.50;;;;;;5126785;28;20103;-74
2023/09/02 12:33:07;;;;;;;4.57;1.98;;;33.40;80.70;;;;;;5122208;27;20044;-72
2023/09/02 12:35:34;;;;;;;4.38;2.00;;;32.90;80.20;;;;;;5089976;28;20051;-72
2023/09/02 12:38:03;;;;;;;4.28;2.10;;;33.10;80.20;;;;;;5088827;28;20047;-72
2023/09/02 12:40:30;;;;;;;4.03;1.73;;;32.90;79.50;;;;;;5111476;28;20067;-73
2023/09/02 12:42:58;;;;;;;4.05;1.80;;;33.20;79.50;;;;;;5089831;28;20051;-72
2023/09/02 12:45:29;;;;;;;4.80;1.98;;;33.40;79.20;;;;;;5093409;28;20463;-73
2023/09/02 12:47:57;;;;;;;2.80;1.33;;;33.40;78.20;;;;;;5088654;28;20044;-73
2023/09/02 12:50:24;;;;;;;3.30;1.80;;;33.40;79.40;;;;;;5093031;28;20480;-74
2023/09/02 12:52:56;;;;;;;2.40;1.50;;;33.20;79.30;;;;;;5090911;28;20052;-73